| time (UTC) | temp F | wind direction | speed MPH | gust MPH | rain 1hr in | rain 24hr in | rain mn in | humidity % | barometer mb |
| 20260507223320 | 80 | 208 | 0.0 | 5.0 | 0.00 | 0.00 | 0.00 | 77 | 1017.4 |
| 20260507222818 | 80 | 204 | 1.0 | 8.0 | 0.00 | 0.00 | 0.00 | 77 | 1017.3 |
| 20260507222314 | 80 | 132 | 2.0 | 6.0 | 0.00 | 0.00 | 0.00 | 75 | 1017.3 |
| 20260507221811 | 82 | 102 | 2.0 | 4.0 | 0.00 | 0.00 | 0.00 | 74 | 1017.3 |
| 20260507221307 | 82 | 104 | 0.0 | 3.0 | 0.00 | 0.00 | 0.00 | 74 | 1017.2 |
| 20260507220803 | 81 | 132 | 0.0 | 5.0 | 0.00 | 0.00 | 0.00 | 78 | 1017.3 |
| 20260507220302 | 81 | 181 | 3.0 | 5.0 | 0.00 | 0.00 | 0.00 | 75 | 1017.3 |
| 20260507215758 | 82 | 182 | 1.0 | 4.0 | 0.00 | 0.00 | 0.00 | 73 | 1017.5 |
| 20260507215256 | 81 | 300 | 0.0 | 4.0 | 0.00 | 0.00 | 0.00 | 74 | 1017.2 |
| 20260507214752 | 81 | 255 | 0.0 | 4.0 | 0.00 | 0.00 | 0.00 | 76 | 1017.4 |
| 20260507214250 | 81 | 183 | 3.0 | 6.0 | 0.00 | 0.00 | 0.00 | 73 | 1017.3 |
| 20260507213745 | 81 | 186 | 0.0 | 3.0 | 0.00 | 0.00 | 0.00 | 74 | 1017.1 |
| 20260507213242 | 82 | 292 | 0.0 | 3.0 | 0.00 | 0.00 | 0.00 | 75 | 1017.1 |
| 20260507212738 | 83 | 156 | 2.0 | 3.0 | 0.00 | 0.00 | 0.00 | 72 | 1017.2 |
| 20260507212235 | 83 | 281 | 2.0 | 5.0 | 0.00 | 0.00 | 0.00 | 71 | 1017.4 |
| 20260507211732 | 82 | 243 | 2.0 | 5.0 | 0.00 | 0.00 | 0.00 | 71 | 1017.8 |
| 20260507211228 | 83 | 311 | 0.0 | 4.0 | 0.00 | 0.00 | 0.00 | 73 | 1017.6 |
| 20260507210725 | 83 | 242 | 0.0 | 2.0 | 0.00 | 0.00 | 0.00 | 72 | 1017.7 |
| 20260507210222 | 82 | 269 | 0.0 | 4.0 | 0.00 | 0.00 | 0.00 | 72 | 1017.7 |
| 20260507205718 | 81 | 173 | 1.0 | 6.0 | 0.00 | 0.00 | 0.00 | 74 | 1018.0 |
| 20260507205215 | 81 | 189 | 2.0 | 7.0 | 0.00 | 0.00 | 0.00 | 73 | 1017.9 |
| 20260507204711 | 81 | 44 | 1.0 | 5.0 | 0.00 | 0.00 | 0.00 | 73 | 1018.2 |
| 20260507204209 | 80 | 18 | 1.0 | 5.0 | 0.00 | 0.00 | 0.00 | 75 | 1018.1 |
| 20260507203707 | 79 | 343 | 0.0 | 4.0 | 0.00 | 0.00 | 0.00 | 76 | 1018.2 |
| 20260507203204 | 78 | 64 | 1.0 | 6.0 | 0.00 | 0.00 | 0.00 | 77 | 1018.2 |
| 20260507202700 | 78 | 325 | 0.0 | 4.0 | 0.00 | 0.00 | 0.00 | 79 | 1018.2 |
| 20260507202156 | 78 | 336 | 2.0 | 4.0 | 0.00 | 0.00 | 0.00 | 78 | 1018.3 |
| 20260507201651 | 77 | 299 | 0.0 | 5.0 | 0.00 | 0.00 | 0.00 | 79 | 1018.6 |
| 20260507201148 | 77 | 65 | 0.0 | 4.0 | 0.00 | 0.00 | 0.00 | 79 | 1018.5 |
| 20260507200644 | 77 | 322 | 2.0 | 4.0 | 0.00 | 0.00 | 0.00 | 77 | 1018.7 |
| 20260507200140 | 78 | 318 | 1.0 | 6.0 | 0.00 | 0.00 | 0.00 | 77 | 1018.6 |
| 20260507195637 | 78 | 263 | 1.0 | 4.0 | 0.00 | 0.00 | 0.00 | 77 | 1018.5 |
| 20260507195134 | 78 | 89 | 0.0 | 3.0 | 0.00 | 0.00 | 0.00 | 78 | 1018.7 |
| 20260507194631 | 77 | 100 | 1.0 | 6.0 | 0.00 | 0.00 | 0.00 | 78 | 1018.8 |
| 20260507194126 | 76 | 358 | 0.0 | 4.0 | 0.00 | 0.00 | 0.00 | 78 | 1018.9 |
| 20260507193624 | 77 | 23 | 0.0 | 3.0 | 0.00 | 0.00 | 0.00 | 79 | 1018.8 |
| 20260507193121 | 77 | 110 | 1.0 | 4.0 | 0.00 | 0.00 | 0.00 | 77 | 1018.9 |
| 20260507192617 | 76 | 117 | 0.0 | 5.0 | 0.00 | 0.00 | 0.00 | 79 | 1019.0 |
| 20260507192114 | 76 | 178 | 3.0 | 3.0 | 0.00 | 0.00 | 0.00 | 78 | 1019.1 |
| 20260507191610 | 77 | 240 | 3.0 | 3.0 | 0.00 | 0.00 | 0.00 | 76 | 1019.1 |
| 20260507191107 | 77 | 46 | 2.0 | 4.0 | 0.00 | 0.00 | 0.00 | 77 | 1019.1 |
| 20260507190604 | 76 | 197 | 2.0 | 7.0 | 0.00 | 0.00 | 0.00 | 77 | 1019.0 |
| 20260507185601 | 78 | 19 | 0.0 | 2.0 | 0.00 | 0.00 | 0.00 | 76 | 1019.2 |
| 20260507185057 | 77 | 266 | 1.0 | 3.0 | 0.00 | 0.00 | 0.00 | 76 | 1019.3 |
| 20260507184555 | 75 | 217 | 0.0 | 4.0 | 0.00 | 0.00 | 0.00 | 79 | 1019.0 |
| 20260507184053 | 74 | 294 | 0.0 | 5.0 | 0.00 | 0.00 | 0.00 | 79 | 1019.3 |
| 20260507183548 | 74 | 203 | 0.0 | 4.0 | 0.00 | 0.00 | 0.00 | 80 | 1019.4 |
| 20260507183046 | 73 | 349 | 1.0 | 4.0 | 0.00 | 0.00 | 0.00 | 81 | 1019.2 |
| 20260507182542 | 73 | 107 | 0.0 | 3.0 | 0.00 | 0.00 | 0.00 | 81 | 1019.3 |
| 20260507182038 | 73 | 9 | 3.0 | 5.0 | 0.00 | 0.00 | 0.00 | 81 | 1019.5 |
| 20260507181535 | 73 | 41 | 0.0 | 3.0 | 0.00 | 0.00 | 0.00 | 82 | 1019.6 |
| 20260507181031 | 73 | 43 | 1.0 | 4.0 | 0.00 | 0.00 | 0.00 | 80 | 1019.5 |
| 20260507180528 | 72 | 79 | 0.0 | 3.0 | 0.00 | 0.00 | 0.00 | 83 | 1019.7 |
| 20260507180025 | 71 | 32 | 3.0 | 5.0 | 0.00 | 0.00 | 0.00 | 82 | 1019.7 |
| 20260507175521 | 71 | 254 | 2.0 | 3.0 | 0.00 | 0.00 | 0.00 | 83 | 1019.9 |
| 20260507175019 | 70 | 229 | 0.0 | 4.0 | 0.00 | 0.00 | 0.00 | 85 | 1019.9 |
| 20260507174515 | 69 | 175 | 3.0 | 6.0 | 0.00 | 0.00 | 0.00 | 84 | 1019.8 |
| 20260507174013 | 70 | 25 | 3.0 | 6.0 | 0.00 | 0.00 | 0.00 | 83 | 1019.9 |
| 20260507173510 | 69 | 135 | 1.0 | 5.0 | 0.00 | 0.00 | 0.00 | 84 | 1019.8 |
| 20260507173008 | 69 | 347 | 0.0 | 7.0 | 0.00 | 0.00 | 0.00 | 84 | 1019.9 |
| 20260507172503 | 70 | 338 | 4.0 | 9.0 | 0.00 | 0.00 | 0.00 | 82 | 1020.1 |
| 20260507172000 | 70 | 19 | 0.0 | 7.0 | 0.00 | 0.00 | 0.00 | 83 | 1020.1 |
| 20260507171455 | 69 | 75 | 0.0 | 6.0 | 0.00 | 0.00 | 0.00 | 85 | 1020.0 |
| 20260507170953 | 69 | 46 | 0.0 | 9.0 | 0.00 | 0.00 | 0.00 | 84 | 1020.2 |
| 20260507170450 | 69 | 290 | 0.0 | 6.0 | 0.00 | 0.00 | 0.00 | 84 | 1020.1 |
| 20260507165946 | 69 | 102 | 0.0 | 3.0 | 0.00 | 0.00 | 0.00 | 84 | 1020.0 |
| 20260507165442 | 69 | 131 | 1.0 | 4.0 | 0.00 | 0.00 | 0.00 | 84 | 1020.0 |
| 20260507164938 | 69 | 69 | 0.0 | 7.0 | 0.00 | 0.00 | 0.00 | 85 | 1020.0 |
| 20260507164435 | 68 | 309 | 0.0 | 4.0 | 0.00 | 0.00 | 0.00 | 86 | 1019.8 |
| 20260507163932 | 67 | 157 | 1.0 | 4.0 | 0.00 | 0.00 | 0.00 | 87 | 1020.0 |
| 20260507163429 | 67 | 29 | 4.0 | 6.0 | 0.00 | 0.00 | 0.00 | 86 | 1020.1 |
| 20260507162926 | 67 | 175 | 1.0 | 2.0 | 0.00 | 0.00 | 0.00 | 87 | 1020.1 |
| 20260507162421 | 66 | 69 | 2.0 | 4.0 | 0.00 | 0.00 | 0.00 | 88 | 1020.0 |
| 20260507161919 | 66 | 39 | 2.0 | 7.0 | 0.00 | 0.00 | 0.00 | 88 | 1020.0 |
| 20260507161414 | 66 | 54 | 0.0 | 2.0 | 0.00 | 0.00 | 0.00 | 90 | 1020.1 |
| 20260507160912 | 65 | 36 | 2.0 | 7.0 | 0.00 | 0.00 | 0.00 | 89 | 1020.0 |
| 20260507160408 | 66 | 45 | 1.0 | 3.0 | 0.00 | 0.00 | 0.00 | 89 | 1019.9 |
| 20260507155904 | 65 | 143 | 0.0 | 3.0 | 0.00 | 0.00 | 0.00 | 90 | 1020.0 |
| 20260507155400 | 65 | 134 | 0.0 | 4.0 | 0.00 | 0.00 | 0.00 | 90 | 1020.1 |
| 20260507154857 | 65 | 31 | 1.0 | 6.0 | 0.00 | 0.00 | 0.00 | 90 | 1020.2 |
| 20260507154354 | 65 | 95 | 1.0 | 6.0 | 0.00 | 0.00 | 0.00 | 90 | 1020.4 |
| 20260507153851 | 65 | 20 | 3.0 | 5.0 | 0.00 | 0.00 | 0.00 | 90 | 1020.1 |
| 20260507153347 | 65 | 317 | 2.0 | 4.0 | 0.00 | 0.00 | 0.00 | 90 | 1020.2 |
| 20260507152844 | 65 | 60 | 0.0 | 3.0 | 0.00 | 0.00 | 0.00 | 91 | 1020.2 |
| 20260507152340 | 65 | 3 | 1.0 | 3.0 | 0.00 | 0.00 | 0.00 | 90 | 1020.1 |
| 20260507151837 | 65 | 142 | 0.0 | 7.0 | 0.00 | 0.00 | 0.00 | 90 | 1020.2 |
| 20260507151333 | 65 | 59 | 1.0 | 4.0 | 0.00 | 0.00 | 0.00 | 90 | 1020.2 |
| 20260507150830 | 65 | 110 | 1.0 | 7.0 | 0.00 | 0.00 | 0.00 | 90 | 1020.0 |
| 20260507150327 | 65 | 75 | 2.0 | 5.0 | 0.00 | 0.00 | 0.00 | 89 | 1020.0 |
| 20260507145823 | 65 | 70 | 1.0 | 6.0 | 0.00 | 0.00 | 0.00 | 90 | 1019.7 |
| 20260507145319 | 65 | 101 | 2.0 | 5.0 | 0.00 | 0.00 | 0.00 | 90 | 1020.0 |
| 20260507144817 | 65 | 77 | 0.0 | 5.0 | 0.00 | 0.00 | 0.00 | 90 | 1020.1 |
| 20260507144314 | 65 | 326 | 3.0 | 6.0 | 0.00 | 0.00 | 0.00 | 89 | 1019.8 |
| 20260507143810 | 65 | 91 | 1.0 | 9.0 | 0.00 | 0.00 | 0.00 | 90 | 1019.9 |
| 20260507143308 | 66 | 179 | 2.0 | 4.0 | 0.00 | 0.00 | 0.00 | 89 | 1019.7 |
| 20260507142803 | 66 | 180 | 0.0 | 5.0 | 0.00 | 0.00 | 0.00 | 89 | 1019.7 |
| 20260507142300 | 66 | 334 | 3.0 | 6.0 | 0.00 | 0.00 | 0.00 | 89 | 1019.8 |
| 20260507141756 | 67 | 332 | 1.0 | 9.0 | 0.00 | 0.00 | 0.00 | 88 | 1019.6 |
| 20260507141254 | 67 | 209 | 2.0 | 5.0 | 0.00 | 0.00 | 0.00 | 88 | 1019.4 |
| 20260507140749 | 67 | 290 | 1.0 | 3.0 | 0.00 | 0.00 | 0.00 | 89 | 1019.5 |
| 20260507140247 | 66 | 93 | 0.0 | 4.0 | 0.00 | 0.00 | 0.00 | 91 | 1019.5 |
| 20260507135744 | 66 | 202 | 2.0 | 4.0 | 0.00 | 0.00 | 0.00 | 91 | 1019.7 |
| 20260507135242 | 66 | 61 | 2.0 | 4.0 | 0.00 | 0.00 | 0.00 | 91 | 1019.9 |
| 20260507134737 | 65 | 91 | 0.0 | 3.0 | 0.00 | 0.00 | 0.00 | 91 | 1020.2 |
| 20260507134234 | 65 | 107 | 0.0 | 3.0 | 0.00 | 0.00 | 0.00 | 91 | 1019.9 |
| 20260507133730 | 65 | 89 | 0.0 | 4.0 | 0.00 | 0.00 | 0.00 | 91 | 1019.9 |
| 20260507133227 | 65 | 194 | 3.0 | 4.0 | 0.00 | 0.00 | 0.00 | 91 | 1020.1 |
| 20260507132725 | 65 | 51 | 2.0 | 4.0 | 0.00 | 0.00 | 0.00 | 92 | 1020.2 |
| 20260507132221 | 65 | 81 | 1.0 | 6.0 | 0.00 | 0.00 | 0.00 | 92 | 1019.9 |
| 20260507131718 | 65 | 67 | 0.0 | 3.0 | 0.00 | 0.00 | 0.00 | 92 | 1019.7 |
| 20260507131215 | 65 | 22 | 1.0 | 5.0 | 0.00 | 0.00 | 0.00 | 92 | 1019.7 |
| 20260507130712 | 66 | 66 | 2.0 | 5.0 | 0.00 | 0.00 | 0.00 | 92 | 1019.6 |
| 20260507130210 | 66 | 271 | 0.0 | 6.0 | 0.00 | 0.00 | 0.00 | 92 | 1019.6 |
| 20260507125708 | 66 | 335 | 0.0 | 5.0 | 0.00 | 0.00 | 0.00 | 92 | 1019.7 |
| 20260507125206 | 66 | 96 | 0.0 | 8.0 | 0.00 | 0.00 | 0.00 | 92 | 1019.6 |
| 20260507124702 | 66 | 49 | 2.0 | 4.0 | 0.00 | 0.00 | 0.00 | 91 | 1019.2 |
| 20260507124159 | 66 | 27 | 0.0 | 4.0 | 0.00 | 0.00 | 0.00 | 91 | 1019.0 |
| 20260507123657 | 66 | 71 | 1.0 | 9.0 | 0.00 | 0.00 | 0.00 | 91 | 1018.9 |
| 20260507123154 | 67 | 163 | 0.0 | 6.0 | 0.00 | 0.00 | 0.00 | 91 | 1019.0 |
| 20260507122649 | 67 | 101 | 2.0 | 3.0 | 0.00 | 0.00 | 0.00 | 91 | 1018.8 |
| 20260507122145 | 66 | 78 | 0.0 | 8.0 | 0.00 | 0.00 | 0.00 | 91 | 1018.7 |
| 20260507121642 | 67 | 314 | 0.0 | 3.0 | 0.00 | 0.00 | 0.00 | 91 | 1018.6 |
| 20260507121137 | 67 | 30 | 1.0 | 4.0 | 0.00 | 0.00 | 0.00 | 91 | 1018.8 |
| 20260507120634 | 67 | 264 | 0.0 | 5.0 | 0.00 | 0.00 | 0.00 | 91 | 1018.6 |
| 20260507120131 | 67 | 111 | 2.0 | 4.0 | 0.00 | 0.00 | 0.00 | 92 | 1018.5 |
| 20260507115627 | 67 | 67 | 1.0 | 4.0 | 0.00 | 0.00 | 0.00 | 92 | 1018.3 |
| 20260507115123 | 67 | 130 | 0.0 | 3.0 | 0.00 | 0.00 | 0.00 | 92 | 1018.3 |
| 20260507114619 | 67 | 143 | 0.0 | 5.0 | 0.00 | 0.00 | 0.00 | 92 | 1018.2 |
| 20260507114116 | 67 | 7 | 2.0 | 4.0 | 0.00 | 0.00 | 0.00 | 92 | 1018.0 |
| 20260507113614 | 67 | 11 | 3.0 | 4.0 | 0.00 | 0.00 | 0.00 | 92 | 1017.6 |
| 20260507113110 | 67 | 215 | 2.0 | 3.0 | 0.00 | 0.00 | 0.00 | 92 | 1017.7 |
| 20260507112609 | 67 | 50 | 0.0 | 4.0 | 0.00 | 0.00 | 0.00 | 92 | 1017.6 |
| 20260507112105 | 67 | 60 | 0.0 | 4.0 | 0.00 | 0.00 | 0.00 | 92 | 1017.6 |
| 20260507111602 | 68 | 295 | 1.0 | 4.0 | 0.00 | 0.00 | 0.00 | 92 | 1017.8 |
| 20260507111058 | 68 | 113 | 0.0 | 3.0 | 0.00 | 0.00 | 0.00 | 92 | 1017.8 |
| 20260507110554 | 68 | 39 | 2.0 | 7.0 | 0.00 | 0.00 | 0.00 | 93 | 1017.7 |
| 20260507110051 | 68 | 51 | 2.0 | 4.0 | 0.00 | 0.00 | 0.00 | 93 | 1017.7 |
| 20260507105548 | 68 | 186 | 1.0 | 5.0 | 0.00 | 0.00 | 0.00 | 93 | 1017.6 |
| 20260507105044 | 68 | 254 | 0.0 | 4.0 | 0.00 | 0.00 | 0.00 | 93 | 1017.7 |
| 20260507104542 | 68 | 187 | 0.0 | 3.0 | 0.00 | 0.00 | 0.00 | 93 | 1017.6 |
| 20260507104038 | 68 | 135 | 2.0 | 3.0 | 0.00 | 0.00 | 0.00 | 93 | 1017.6 |
| 20260507103534 | 68 | 195 | 0.0 | 6.0 | 0.00 | 0.00 | 0.00 | 93 | 1017.7 |
| 20260507103031 | 68 | 81 | 2.0 | 5.0 | 0.00 | 0.00 | 0.00 | 92 | 1017.6 |
| 20260507102528 | 68 | 130 | 2.0 | 3.0 | 0.00 | 0.00 | 0.00 | 92 | 1017.6 |
| 20260507102024 | 68 | 134 | 0.0 | 4.0 | 0.00 | 0.00 | 0.00 | 92 | 1017.1 |
| 20260507101519 | 68 | 228 | 2.0 | 3.0 | 0.00 | 0.00 | 0.00 | 93 | 1017.3 |
| 20260507101016 | 68 | 323 | 1.0 | 4.0 | 0.00 | 0.00 | 0.00 | 93 | 1017.1 |
| 20260507100513 | 69 | 79 | 0.0 | 3.0 | 0.00 | 0.00 | 0.00 | 93 | 1017.0 |
| 20260507100011 | 69 | 65 | 0.0 | 4.0 | 0.00 | 0.00 | 0.00 | 93 | 1017.0 |
| 20260507095509 | 69 | 180 | 0.0 | 4.0 | 0.00 | 0.00 | 0.00 | 93 | 1017.1 |
| 20260507095005 | 69 | 43 | 2.0 | 4.0 | 0.00 | 0.00 | 0.00 | 93 | 1017.1 |
| 20260507094502 | 69 | 104 | 2.0 | 6.0 | 0.00 | 0.00 | 0.00 | 92 | 1017.1 |
| 20260507093959 | 69 | 12 | 2.0 | 4.0 | 0.00 | 0.00 | 0.00 | 92 | 1016.8 |
| 20260507093456 | 69 | 48 | 0.0 | 3.0 | 0.00 | 0.00 | 0.00 | 92 | 1016.9 |
| 20260507092954 | 69 | 113 | 0.0 | 3.0 | 0.00 | 0.00 | 0.00 | 92 | 1016.9 |
| 20260507092451 | 69 | 141 | 1.0 | 5.0 | 0.00 | 0.00 | 0.00 | 92 | 1017.0 |
| 20260507091948 | 69 | 354 | 2.0 | 7.0 | 0.00 | 0.00 | 0.00 | 92 | 1017.0 |
| 20260507091444 | 69 | 15 | 1.0 | 5.0 | 0.00 | 0.00 | 0.00 | 92 | 1016.9 |
| 20260507090940 | 70 | 108 | 2.0 | 6.0 | 0.00 | 0.00 | 0.00 | 92 | 1017.0 |
| 20260507090436 | 70 | 284 | 2.0 | 6.0 | 0.00 | 0.00 | 0.00 | 92 | 1017.0 |
| 20260507085932 | 70 | 46 | 1.0 | 3.0 | 0.00 | 0.00 | 0.00 | 92 | 1016.9 |
| 20260507085430 | 70 | 273 | 1.0 | 3.0 | 0.00 | 0.00 | 0.00 | 92 | 1016.7 |
| 20260507084927 | 70 | 127 | 0.0 | 5.0 | 0.00 | 0.00 | 0.00 | 92 | 1016.6 |
| 20260507084424 | 70 | 48 | 0.0 | 5.0 | 0.00 | 0.00 | 0.00 | 91 | 1016.6 |
| 20260507083921 | 70 | 51 | 2.0 | 5.0 | 0.00 | 0.00 | 0.00 | 91 | 1016.6 |
| 20260507083417 | 70 | 245 | 0.0 | 3.0 | 0.00 | 0.00 | 0.00 | 91 | 1016.4 |
| 20260507082914 | 71 | 58 | 1.0 | 3.0 | 0.00 | 0.00 | 0.00 | 91 | 1016.4 |
| 20260507082409 | 71 | 289 | 2.0 | 4.0 | 0.00 | 0.00 | 0.00 | 92 | 1016.5 |
| 20260507081907 | 71 | 92 | 2.0 | 5.0 | 0.00 | 0.00 | 0.00 | 91 | 1016.4 |
| 20260507081403 | 71 | 29 | 2.0 | 5.0 | 0.00 | 0.00 | 0.00 | 91 | 1016.7 |
| 20260507080859 | 71 | 46 | 2.0 | 6.0 | 0.00 | 0.00 | 0.00 | 91 | 1016.6 |
| 20260507080356 | 71 | 12 | 2.0 | 7.0 | 0.00 | 0.00 | 0.00 | 91 | 1016.6 |
| 20260507075851 | 71 | 91 | 3.0 | 7.0 | 0.00 | 0.00 | 0.00 | 91 | 1016.6 |
| 20260507075347 | 71 | 57 | 2.0 | 4.0 | 0.00 | 0.00 | 0.00 | 92 | 1016.6 |
| 20260507074844 | 71 | 100 | 0.0 | 5.0 | 0.00 | 0.00 | 0.00 | 92 | 1016.7 |
| 20260507074341 | 71 | 81 | 0.0 | 5.0 | 0.00 | 0.00 | 0.00 | 92 | 1016.7 |
| 20260507073838 | 72 | 122 | 0.0 | 4.0 | 0.00 | 0.00 | 0.00 | 92 | 1016.7 |
| 20260507073335 | 72 | 83 | 1.0 | 3.0 | 0.00 | 0.00 | 0.00 | 92 | 1016.6 |
| 20260507072832 | 72 | 287 | 3.0 | 9.0 | 0.00 | 0.00 | 0.00 | 91 | 1016.8 |
| 20260507072330 | 72 | 311 | 2.0 | 5.0 | 0.00 | 0.00 | 0.00 | 91 | 1016.6 |
| 20260507071827 | 72 | 16 | 2.0 | 4.0 | 0.00 | 0.00 | 0.00 | 91 | 1016.7 |
| 20260507071324 | 72 | 318 | 0.0 | 5.0 | 0.00 | 0.00 | 0.00 | 91 | 1016.9 |
| 20260507070820 | 72 | 83 | 0.0 | 3.0 | 0.00 | 0.00 | 0.00 | 91 | 1016.9 |
| 20260507070318 | 72 | 44 | 2.0 | 3.0 | 0.00 | 0.00 | 0.00 | 91 | 1016.8 |
| 20260507065814 | 72 | 67 | 1.0 | 7.0 | 0.00 | 0.00 | 0.00 | 91 | 1016.7 |
| 20260507065311 | 73 | 223 | 2.0 | 9.0 | 0.00 | 0.00 | 0.00 | 91 | 1016.8 |
| 20260507064808 | 73 | 51 | 1.0 | 5.0 | 0.00 | 0.00 | 0.00 | 91 | 1016.8 |
| 20260507064307 | 73 | 312 | 0.0 | 5.0 | 0.00 | 0.00 | 0.00 | 91 | 1016.9 |
| 20260507063804 | 73 | 12 | 4.0 | 6.0 | 0.00 | 0.00 | 0.00 | 91 | 1016.9 |
| 20260507063301 | 73 | 89 | 0.0 | 2.0 | 0.00 | 0.00 | 0.00 | 91 | 1016.9 |
| 20260507062758 | 73 | 180 | 0.0 | 6.0 | 0.00 | 0.00 | 0.00 | 91 | 1016.9 |
| 20260507062255 | 73 | 317 | 1.0 | 4.0 | 0.00 | 0.00 | 0.00 | 91 | 1016.8 |
| 20260507061753 | 73 | 16 | 1.0 | 4.0 | 0.00 | 0.00 | 0.00 | 91 | 1016.7 |
| 20260507061250 | 73 | 76 | 0.0 | 3.0 | 0.00 | 0.00 | 0.00 | 91 | 1016.8 |
| 20260507060748 | 73 | 110 | 0.0 | 3.0 | 0.00 | 0.00 | 0.00 | 91 | 1016.7 |
| 20260507060245 | 73 | 191 | 0.0 | 3.0 | 0.00 | 0.00 | 0.00 | 91 | 1016.4 |
| 20260507055741 | 73 | 29 | 2.0 | 3.0 | 0.00 | 0.00 | 0.00 | 91 | 1016.3 |
| 20260507055237 | 74 | 50 | 0.0 | 5.0 | 0.00 | 0.00 | 0.00 | 91 | 1016.2 |
| 20260507054733 | 74 | 39 | 0.0 | 4.0 | 0.00 | 0.00 | 0.00 | 92 | 1016.4 |
| 20260507054230 | 74 | 127 | 1.0 | 3.0 | 0.00 | 0.00 | 0.00 | 92 | 1016.4 |
| 20260507053727 | 74 | 142 | 0.0 | 1.0 | 0.00 | 0.00 | 0.00 | 93 | 1016.5 |
| 20260507053225 | 74 | 162 | 2.0 | 4.0 | 0.00 | 0.00 | 0.00 | 93 | 1016.4 |
| 20260507052724 | 74 | 136 | 2.0 | 3.0 | 0.00 | 0.00 | 0.00 | 93 | 1016.5 |
| 20260507052219 | 74 | 230 | 0.0 | 7.0 | 0.00 | 0.00 | 0.00 | 93 | 1016.4 |
| 20260507051718 | 74 | 356 | 0.0 | 3.0 | 0.00 | 0.00 | 0.00 | 94 | 1016.5 |
| 20260507051214 | 74 | 176 | 0.0 | 4.0 | 0.00 | 0.00 | 0.00 | 93 | 1016.6 |
| 20260507050710 | 74 | 350 | 0.0 | 4.0 | 0.00 | 0.00 | 0.00 | 93 | 1016.6 |
| 20260507050208 | 74 | 0 | 0.0 | 5.0 | 0.00 | 0.00 | 0.00 | 93 | 1016.5 |
| 20260507045705 | 75 | 5 | 1.0 | 3.0 | 0.00 | 0.00 | 0.00 | 93 | 1016.6 |
| 20260507045201 | 75 | 89 | 0.0 | 3.0 | 0.00 | 0.00 | 0.00 | 94 | 1016.5 |
| 20260507044658 | 75 | 249 | 0.0 | 5.0 | 0.00 | 0.00 | 0.00 | 93 | 1016.6 |
| 20260507044154 | 75 | 343 | 2.0 | 4.0 | 0.00 | 0.00 | 0.00 | 94 | 1016.6 |
| 20260507043651 | 75 | 62 | 0.0 | 3.0 | 0.00 | 0.00 | 0.00 | 94 | 1016.6 |
| 20260507043148 | 75 | 269 | 0.0 | 3.0 | 0.00 | 0.00 | 0.00 | 94 | 1016.7 |
| 20260507042644 | 75 | 342 | 0.0 | 5.0 | 0.00 | 0.00 | 0.00 | 94 | 1016.6 |
| 20260507042139 | 75 | 65 | 0.0 | 4.0 | 0.00 | 0.00 | 0.00 | 93 | 1016.6 |
| 20260507041637 | 76 | 351 | 0.0 | 8.0 | 0.00 | 0.00 | 0.00 | 93 | 1016.4 |
| 20260507041133 | 76 | 33 | 1.0 | 6.0 | 0.00 | 0.00 | 0.00 | 93 | 1016.4 |
| 20260507040630 | 77 | 337 | 0.0 | 7.0 | 0.00 | 0.00 | 0.00 | 94 | 1016.4 |
| 20260507040127 | 78 | 50 | 0.0 | 12.0 | 0.00 | 0.00 | 0.00 | 97 | 1016.0 |
| 20260507035622 | 78 | 29 | 0.0 | 1.0 | 0.00 | 0.00 | 0.00 | 98 | 1015.8 |
| 20260507035118 | 78 | 0 | 0.0 | 0.0 | 0.00 | 0.00 | 0.00 | 98 | 1016.0 |
| 20260507034616 | 78 | 129 | 0.0 | 2.0 | 0.00 | 0.00 | 0.00 | 98 | 1015.8 |
| 20260507034113 | 78 | 154 | 0.0 | 1.0 | 0.00 | 0.00 | 0.00 | 98 | 1015.8 |
| 20260507033612 | 78 | 260 | 0.0 | 3.0 | 0.00 | 0.00 | 0.00 | 98 | 1016.0 |
| 20260507033108 | 78 | 244 | 0.0 | 2.0 | 0.00 | 0.00 | 0.00 | 98 | 1015.8 |
| 20260507032606 | 78 | 235 | 0.0 | 1.0 | 0.00 | 0.00 | 0.00 | 97 | 1015.6 |
| 20260507032102 | 78 | 230 | 0.0 | 1.0 | 0.00 | 0.00 | 0.00 | 97 | 1015.3 |
| 20260507031558 | 78 | 212 | 0.0 | 0.0 | 0.00 | 0.00 | 0.00 | 97 | 1015.4 |
| 20260507031055 | 78 | 186 | 0.0 | 3.0 | 0.00 | 0.00 | 0.00 | 97 | 1015.3 |
| 20260507030551 | 78 | 246 | 0.0 | 2.0 | 0.00 | 0.00 | 0.00 | 97 | 1015.2 |
| 20260507030050 | 78 | 169 | 0.0 | 6.0 | 0.00 | 0.00 | 0.00 | 97 | 1015.0 |
| 20260507025547 | 78 | 203 | 0.0 | 5.0 | 0.00 | 0.00 | 0.00 | 97 | 1015.0 |
| 20260507025044 | 78 | 186 | 0.0 | 2.0 | 0.00 | 0.00 | 0.00 | 97 | 1015.0 |
| 20260507024542 | 78 | 115 | 0.0 | 2.0 | 0.00 | 0.00 | 0.00 | 97 | 1014.7 |
| 20260507024038 | 78 | 205 | 0.0 | 1.0 | 0.00 | 0.00 | 0.00 | 97 | 1014.8 |
| 20260507023533 | 78 | 164 | 0.0 | 1.0 | 0.00 | 0.00 | 0.00 | 97 | 1014.9 |
| 20260507023032 | 79 | 230 | 0.0 | 2.0 | 0.00 | 0.00 | 0.00 | 97 | 1014.8 |
| 20260507022528 | 79 | 205 | 0.0 | 2.0 | 0.00 | 0.00 | 0.00 | 97 | 1014.5 |
| 20260507022023 | 78 | 205 | 0.0 | 0.0 | 0.00 | 0.00 | 0.00 | 97 | 1014.5 |
| 20260507021520 | 79 | 205 | 0.0 | 1.0 | 0.00 | 0.00 | 0.00 | 96 | 1014.5 |
| 20260507021016 | 79 | 230 | 0.0 | 1.0 | 0.00 | 0.00 | 0.00 | 96 | 1014.5 |
| 20260507020514 | 79 | 217 | 0.0 | 3.0 | 0.00 | 0.00 | 0.00 | 96 | 1014.4 |
| 20260507020010 | 79 | 164 | 0.0 | 1.0 | 0.00 | 0.00 | 0.00 | 96 | 1014.4 |
| 20260507015509 | 79 | 204 | 1.0 | 2.0 | 0.00 | 0.00 | 0.00 | 96 | 1014.2 |
| 20260507015006 | 79 | 254 | 1.0 | 2.0 | 0.00 | 0.00 | 0.00 | 96 | 1014.0 |
| 20260507014502 | 79 | 95 | 1.0 | 3.0 | 0.00 | 0.00 | 0.00 | 95 | 1014.0 |
| 20260507013958 | 79 | 180 | 1.0 | 3.0 | 0.00 | 0.00 | 0.00 | 95 | 1013.9 |
| 20260507013455 | 79 | 198 | 1.0 | 2.0 | 0.00 | 0.00 | 0.00 | 95 | 1013.8 |
| 20260507012952 | 80 | 129 | 4.0 | 5.0 | 0.00 | 0.00 | 0.00 | 95 | 1013.9 |
| 20260507012449 | 80 | 197 | 0.0 | 2.0 | 0.00 | 0.00 | 0.00 | 94 | 1013.9 |
| 20260507011946 | 80 | 131 | 4.0 | 7.0 | 0.00 | 0.00 | 0.00 | 94 | 1013.7 |
| 20260507011443 | 80 | 227 | 0.0 | 3.0 | 0.00 | 0.00 | 0.00 | 94 | 1013.6 |
| 20260507010938 | 80 | 235 | 1.0 | 4.0 | 0.00 | 0.00 | 0.00 | 94 | 1013.5 |
| 20260507010433 | 80 | 157 | 2.0 | 7.0 | 0.00 | 0.00 | 0.00 | 94 | 1013.3 |
| 20260507005930 | 80 | 226 | 2.0 | 3.0 | 0.00 | 0.00 | 0.00 | 94 | 1013.5 |
| 20260507005427 | 80 | 155 | 4.0 | 5.0 | 0.00 | 0.00 | 0.00 | 93 | 1013.4 |
| 20260507004923 | 80 | 215 | 1.0 | 7.0 | 0.00 | 0.00 | 0.00 | 93 | 1013.3 |
| 20260507004420 | 80 | 195 | 2.0 | 3.0 | 0.00 | 0.00 | 0.00 | 93 | 1013.4 |
| 20260507003918 | 80 | 124 | 0.0 | 2.0 | 0.00 | 0.00 | 0.00 | 92 | 1013.2 |
| 20260507003413 | 81 | 186 | 1.0 | 7.0 | 0.00 | 0.00 | 0.00 | 92 | 1013.3 |
| 20260507002908 | 81 | 214 | 1.0 | 3.0 | 0.00 | 0.00 | 0.00 | 92 | 1013.3 |
| 20260507002404 | 81 | 212 | 0.0 | 2.0 | 0.00 | 0.00 | 0.00 | 92 | 1013.2 |
| 20260507001902 | 81 | 159 | 2.0 | 6.0 | 0.00 | 0.00 | 0.00 | 92 | 1012.9 |
| 20260507001359 | 81 | 227 | 0.0 | 3.0 | 0.00 | 0.00 | 0.00 | 92 | 1013.1 |
| 20260507000856 | 81 | 232 | 0.0 | 3.0 | 0.00 | 0.00 | 0.00 | 91 | 1013.2 |
| 20260507000351 | 81 | 172 | 1.0 | 3.0 | 0.00 | 0.00 | 0.00 | 91 | 1013.3 |
| 20260506235847 | 81 | 237 | 2.0 | 5.0 | 0.00 | 0.00 | 0.00 | 91 | 1013.0 |
| 20260506235345 | 82 | 251 | 2.0 | 5.0 | 0.00 | 0.00 | 0.00 | 90 | 1013.1 |
| 20260506234840 | 82 | 230 | 0.0 | 3.0 | 0.00 | 0.00 | 0.00 | 90 | 1012.9 |
| 20260506234338 | 82 | 182 | 1.0 | 4.0 | 0.00 | 0.00 | 0.00 | 90 | 1013.1 |
| 20260506233836 | 82 | 186 | 1.0 | 4.0 | 0.00 | 0.00 | 0.00 | 90 | 1013.0 |
| 20260506233331 | 82 | 199 | 2.0 | 6.0 | 0.00 | 0.00 | 0.00 | 89 | 1013.0 |
| 20260506232829 | 82 | 207 | 1.0 | 2.0 | 0.00 | 0.00 | 0.00 | 89 | 1013.0 |
| 20260506232324 | 82 | 81 | 2.0 | 5.0 | 0.00 | 0.00 | 0.00 | 89 | 1013.0 |
| 20260506231821 | 82 | 257 | 3.0 | 7.0 | 0.00 | 0.00 | 0.00 | 89 | 1013.0 |
| 20260506231319 | 83 | 254 | 0.0 | 4.0 | 0.00 | 0.00 | 0.00 | 88 | 1012.9 |
| 20260506230816 | 83 | 152 | 1.0 | 4.0 | 0.00 | 0.00 | 0.00 | 88 | 1012.6 |
| 20260506230313 | 84 | 198 | 2.0 | 7.0 | 0.00 | 0.00 | 0.00 | 87 | 1012.7 |
| 20260506225809 | 83 | 240 | 2.0 | 3.0 | 0.00 | 0.00 | 0.00 | 87 | 1012.8 |
| 20260506225306 | 83 | 293 | 1.0 | 6.0 | 0.00 | 0.00 | 0.00 | 88 | 1012.9 |
| 20260506224803 | 83 | 162 | 1.0 | 4.0 | 0.00 | 0.00 | 0.00 | 87 | 1012.6 |
| 20260506224300 | 83 | 214 | 2.0 | 9.0 | 0.00 | 0.00 | 0.00 | 88 | 1012.4 |
| 20260506223756 | 83 | 174 | 2.0 | 5.0 | 0.00 | 0.00 | 0.00 | 87 | 1012.7 |